SWA183 PHNL-PHOG
Flight info
| Callsign | SWA183 |
|---|---|
| Flight time | 0h 22m |
| Altitude | 13000 |
| Route | PALAY3 LNY CAMPS4 |
| Aircraft | B738/M-SDE2E3FGHIRWXY/LB1 |
Departure
| Time | 2026-04-21 18:30 |
|---|---|
| Airport | Daniel K. Inouye International Airport (PHNL) |
Arrival
| Time | 2026-04-21 18:52 |
|---|---|
| Airport | Kahului International Airport (PHOG) |
| Time | Latitude | Longitude | Altitude | Speed | Heading |
|---|---|---|---|---|---|
| 2026-04-21 18:04 | 21.33061 | -157.92059 | 26 ft | 0 kts | 99° |
| 2026-04-21 18:19 | 21.33061 | -157.92060 | 23 ft | 1 kts | 99° |
| 2026-04-21 18:19 | 21.33065 | -157.92085 | 25 ft | 3 kts | 99° |
| 2026-04-21 18:19 | 21.33067 | -157.92108 | 27 ft | 4 kts | 80° |
| 2026-04-21 18:19 | 21.33057 | -157.92132 | 23 ft | 4 kts | 32° |
| 2026-04-21 18:20 | 21.33034 | -157.92139 | 23 ft | 4 kts | 9° |
| 2026-04-21 18:20 | 21.33007 | -157.92144 | 23 ft | 4 kts | 9° |
| 2026-04-21 18:20 | 21.32980 | -157.92149 | 24 ft | 4 kts | 9° |
| 2026-04-21 18:20 | 21.32953 | -157.92153 | 27 ft | 4 kts | 9° |
| 2026-04-21 18:21 | 21.32926 | -157.92158 | 25 ft | 4 kts | 9° |
| 2026-04-21 18:21 | 21.32900 | -157.92162 | 25 ft | 4 kts | 9° |
| 2026-04-21 18:21 | 21.32875 | -157.92167 | 24 ft | 2 kts | 9° |
| 2026-04-21 18:21 | 21.32852 | -157.92171 | 25 ft | 4 kts | 8° |
| 2026-04-21 18:22 | 21.32825 | -157.92175 | 25 ft | 4 kts | 17° |
| 2026-04-21 18:22 | 21.32803 | -157.92186 | 25 ft | 4 kts | 33° |
| 2026-04-21 18:22 | 21.32783 | -157.92204 | 28 ft | 4 kts | 58° |
| 2026-04-21 18:22 | 21.32773 | -157.92230 | 23 ft | 4 kts | 84° |
| 2026-04-21 18:23 | 21.32773 | -157.92256 | 23 ft | 4 kts | 90° |
| 2026-04-21 18:23 | 21.32773 | -157.92285 | 23 ft | 4 kts | 90° |
| 2026-04-21 18:23 | 21.32773 | -157.92290 | 23 ft | 1 kts | 90° |
| 2026-04-21 18:26 | 21.32771 | -157.92267 | 23 ft | 5 kts | 110° |
| 2026-04-21 18:27 | 21.32726 | -157.92255 | 23 ft | 11 kts | 181° |
| 2026-04-21 18:27 | 21.32688 | -157.92311 | 25 ft | 7 kts | 240° |
| 2026-04-21 18:27 | 21.32624 | -157.92296 | 25 ft | 14 kts | 150° |
| 2026-04-21 18:27 | 21.32509 | -157.92225 | 25 ft | 24 kts | 150° |
| 2026-04-21 18:28 | 21.32345 | -157.92124 | 25 ft | 28 kts | 150° |
| 2026-04-21 18:28 | 21.32203 | -157.92046 | 24 ft | 13 kts | 184° |
| 2026-04-21 18:28 | 21.32138 | -157.92119 | 24 ft | 16 kts | 233° |
| 2026-04-21 18:28 | 21.32051 | -157.92242 | 24 ft | 24 kts | 233° |
| 2026-04-21 18:29 | 21.31945 | -157.92378 | 24 ft | 20 kts | 202° |
| 2026-04-21 18:29 | 21.31865 | -157.92335 | 23 ft | 13 kts | 132° |
| 2026-04-21 18:29 | 21.31891 | -157.92254 | 25 ft | 14 kts | 53° |
| 2026-04-21 18:29 | 21.32076 | -157.91993 | 26 ft | 82 kts | 53° |
| 2026-04-21 18:30 | 21.32563 | -157.91301 | 26 ft | 148 kts | 53° |
| 2026-04-21 18:30 | 21.33121 | -157.90262 | 492 ft | 170 kts | 77° |
| 2026-04-21 18:30 | 21.32982 | -157.88990 | 1240 ft | 176 kts | 119° |
| 2026-04-21 18:30 | 21.32111 | -157.88072 | 2027 ft | 180 kts | 155° |
| 2026-04-21 18:31 | 21.30926 | -157.87647 | 2841 ft | 181 kts | 163° |
| 2026-04-21 18:31 | 21.29711 | -157.87252 | 3596 ft | 184 kts | 164° |
| 2026-04-21 18:31 | 21.28493 | -157.86871 | 4440 ft | 182 kts | 161° |
| 2026-04-21 18:31 | 21.27438 | -157.86056 | 4848 ft | 206 kts | 123° |
| 2026-04-21 18:32 | 21.26698 | -157.84636 | 5069 ft | 231 kts | 119° |
| 2026-04-21 18:32 | 21.25861 | -157.83046 | 5273 ft | 259 kts | 120° |
| 2026-04-21 18:32 | 21.24912 | -157.81305 | 5761 ft | 277 kts | 121° |
| 2026-04-21 18:32 | 21.23912 | -157.79524 | 6573 ft | 281 kts | 121° |
| 2026-04-21 18:33 | 21.22878 | -157.77723 | 7336 ft | 286 kts | 122° |
| 2026-04-21 18:33 | 21.21817 | -157.75901 | 8127 ft | 290 kts | 122° |
| 2026-04-21 18:33 | 21.20733 | -157.74059 | 8906 ft | 295 kts | 123° |
| 2026-04-21 18:33 | 21.19627 | -157.72191 | 9698 ft | 299 kts | 123° |
| 2026-04-21 18:34 | 21.18499 | -157.70294 | 10368 ft | 308 kts | 123° |
| 2026-04-21 18:34 | 21.17299 | -157.68283 | 10560 ft | 333 kts | 123° |
| 2026-04-21 18:34 | 21.16007 | -157.66119 | 10795 ft | 355 kts | 123° |
| 2026-04-21 18:34 | 21.14672 | -157.63884 | 11292 ft | 365 kts | 123° |
| 2026-04-21 18:35 | 21.13743 | -157.62330 | 11726 ft | 368 kts | 123° |
| 2026-04-21 18:35 | 21.11896 | -157.59242 | 12637 ft | 374 kts | 123° |
| 2026-04-21 18:35 | 21.10487 | -157.56888 | 12946 ft | 377 kts | 123° |
| 2026-04-21 18:35 | 21.09093 | -157.54482 | 12991 ft | 383 kts | 122° |
| 2026-04-21 18:36 | 21.07709 | -157.52029 | 12991 ft | 383 kts | 121° |
| 2026-04-21 18:36 | 21.06340 | -157.49583 | 12989 ft | 382 kts | 121° |
| 2026-04-21 18:36 | 21.04974 | -157.47147 | 12993 ft | 381 kts | 121° |
| 2026-04-21 18:36 | 21.03611 | -157.44722 | 12992 ft | 380 kts | 121° |
| 2026-04-21 18:37 | 21.02530 | -157.42805 | 12994 ft | 380 kts | 122° |
| 2026-04-21 18:37 | 21.01160 | -157.40379 | 12999 ft | 380 kts | 122° |
| 2026-04-21 18:37 | 20.99788 | -157.37954 | 12994 ft | 381 kts | 122° |
| 2026-04-21 18:37 | 20.98413 | -157.35527 | 12994 ft | 381 kts | 122° |
| 2026-04-21 18:38 | 20.97040 | -157.33103 | 12995 ft | 379 kts | 122° |
| 2026-04-21 18:38 | 20.95712 | -157.30759 | 12974 ft | 367 kts | 122° |
| 2026-04-21 18:38 | 20.94412 | -157.28465 | 12976 ft | 354 kts | 122° |
| 2026-04-21 18:38 | 20.93145 | -157.26231 | 12735 ft | 348 kts | 122° |
| 2026-04-21 18:39 | 20.91899 | -157.24035 | 12474 ft | 343 kts | 122° |
| 2026-04-21 18:39 | 20.90673 | -157.21872 | 12179 ft | 339 kts | 122° |
| 2026-04-21 18:39 | 20.89452 | -157.19718 | 11850 ft | 337 kts | 122° |
| 2026-04-21 18:39 | 20.88239 | -157.17577 | 11525 ft | 336 kts | 122° |
| 2026-04-21 18:40 | 20.87030 | -157.15445 | 11196 ft | 334 kts | 122° |
| 2026-04-21 18:40 | 20.85826 | -157.13323 | 10859 ft | 334 kts | 122° |
| 2026-04-21 18:40 | 20.85029 | -157.11917 | 10640 ft | 333 kts | 122° |
| 2026-04-21 18:40 | 20.83445 | -157.09126 | 10418 ft | 323 kts | 122° |
| 2026-04-21 18:41 | 20.82308 | -157.07123 | 10281 ft | 315 kts | 122° |
| 2026-04-21 18:41 | 20.81184 | -157.05143 | 10145 ft | 308 kts | 122° |
| 2026-04-21 18:41 | 20.80084 | -157.03206 | 10026 ft | 300 kts | 122° |
| 2026-04-21 18:41 | 20.79017 | -157.01329 | 9754 ft | 297 kts | 122° |
| 2026-04-21 18:42 | 20.77936 | -156.99429 | 9398 ft | 298 kts | 122° |
| 2026-04-21 18:42 | 20.76856 | -156.97530 | 9055 ft | 299 kts | 121° |
| 2026-04-21 18:42 | 20.75979 | -156.95519 | 8745 ft | 298 kts | 108° |
| 2026-04-21 18:42 | 20.75388 | -156.93408 | 8460 ft | 296 kts | 105° |
| 2026-04-21 18:43 | 20.74863 | -156.91316 | 8166 ft | 295 kts | 104° |
| 2026-04-21 18:43 | 20.74335 | -156.89207 | 7871 ft | 292 kts | 105° |
| 2026-04-21 18:43 | 20.73804 | -156.87143 | 7581 ft | 284 kts | 105° |
| 2026-04-21 18:43 | 20.73278 | -156.85141 | 7283 ft | 277 kts | 105° |
| 2026-04-21 18:44 | 20.72758 | -156.83189 | 7008 ft | 270 kts | 105° |
| 2026-04-21 18:44 | 20.72241 | -156.81269 | 6762 ft | 269 kts | 105° |
| 2026-04-21 18:44 | 20.71722 | -156.79351 | 6482 ft | 269 kts | 105° |
| 2026-04-21 18:44 | 20.71202 | -156.77433 | 6201 ft | 268 kts | 105° |
| 2026-04-21 18:45 | 20.70681 | -156.75518 | 5916 ft | 268 kts | 105° |
| 2026-04-21 18:45 | 20.70161 | -156.73608 | 5645 ft | 267 kts | 105° |
| 2026-04-21 18:45 | 20.69642 | -156.71707 | 5380 ft | 266 kts | 105° |
| 2026-04-21 18:45 | 20.69132 | -156.69840 | 5118 ft | 265 kts | 105° |
| 2026-04-21 18:46 | 20.68659 | -156.67940 | 4841 ft | 264 kts | 97° |
| 2026-04-21 18:46 | 20.68781 | -156.66011 | 4695 ft | 256 kts | 80° |
| 2026-04-21 18:46 | 20.69050 | -156.64149 | 4549 ft | 251 kts | 81° |
| 2026-04-21 18:46 | 20.69294 | -156.62328 | 4428 ft | 244 kts | 82° |
| 2026-04-21 18:47 | 20.69525 | -156.60561 | 4345 ft | 233 kts | 82° |
| 2026-04-21 18:47 | 20.69746 | -156.58914 | 4221 ft | 222 kts | 78° |
| 2026-04-21 18:47 | 20.70433 | -156.57500 | 3974 ft | 215 kts | 39° |
| 2026-04-21 18:47 | 20.71647 | -156.56634 | 3804 ft | 208 kts | 36° |
| 2026-04-21 18:48 | 20.72810 | -156.55732 | 3571 ft | 205 kts | 37° |
| 2026-04-21 18:48 | 20.73936 | -156.54863 | 3531 ft | 197 kts | 36° |
| 2026-04-21 18:48 | 20.75088 | -156.53992 | 3289 ft | 205 kts | 36° |
| 2026-04-21 18:48 | 20.76264 | -156.53109 | 3019 ft | 208 kts | 36° |
| 2026-04-21 18:49 | 20.77444 | -156.52225 | 2757 ft | 206 kts | 35° |
| 2026-04-21 18:49 | 20.78609 | -156.51353 | 2484 ft | 203 kts | 35° |
| 2026-04-21 18:49 | 20.79369 | -156.50783 | 2303 ft | 199 kts | 35° |
| 2026-04-21 18:49 | 20.80843 | -156.49678 | 1945 ft | 187 kts | 34° |
| 2026-04-21 18:50 | 20.81880 | -156.48903 | 1736 ft | 176 kts | 35° |
| 2026-04-21 18:50 | 20.82847 | -156.48178 | 1500 ft | 167 kts | 34° |
| 2026-04-21 18:50 | 20.83763 | -156.47492 | 1302 ft | 159 kts | 35° |
| 2026-04-21 18:50 | 20.84656 | -156.46822 | 1101 ft | 155 kts | 35° |
| 2026-04-21 18:51 | 20.85543 | -156.46157 | 904 ft | 155 kts | 35° |
| 2026-04-21 18:51 | 20.86433 | -156.45491 | 693 ft | 157 kts | 35° |
| 2026-04-21 18:51 | 20.87329 | -156.44824 | 476 ft | 157 kts | 34° |
| 2026-04-21 18:51 | 20.88233 | -156.44164 | 250 ft | 156 kts | 36° |
| 2026-04-21 18:52 | 20.89105 | -156.43493 | 54 ft | 150 kts | 34° |
| 2026-04-21 18:52 | 20.89785 | -156.42986 | 43 ft | 69 kts | 35° |
| 2026-04-21 18:52 | 20.89986 | -156.42895 | 41 ft | 21 kts | 323° |
| 2026-04-21 18:52 | 20.89957 | -156.43017 | 44 ft | 21 kts | 214° |
| 2026-04-21 18:53 | 20.89841 | -156.43103 | 44 ft | 20 kts | 214° |
| 2026-04-21 18:53 | 20.89729 | -156.43186 | 44 ft | 19 kts | 214° |
| 2026-04-21 18:53 | 20.89657 | -156.43240 | 44 ft | 19 kts | 215° |
| 2026-04-21 18:53 | 20.89516 | -156.43346 | 44 ft | 18 kts | 215° |
| 2026-04-21 18:54 | 20.89449 | -156.43396 | 44 ft | 18 kts | 214° |
| 2026-04-21 18:54 | 20.89344 | -156.43474 | 44 ft | 20 kts | 214° |
| 2026-04-21 18:54 | 20.89222 | -156.43564 | 44 ft | 23 kts | 215° |
| 2026-04-21 18:54 | 20.89139 | -156.43654 | 44 ft | 14 kts | 279° |
| 2026-04-21 18:55 | 20.89182 | -156.43727 | 44 ft | 7 kts | 305° |
| 2026-04-21 18:55 | 20.89194 | -156.43745 | 44 ft | 1 kts | 305° |
| 2026-04-21 18:55 | 20.89196 | -156.43747 | 44 ft | 0 kts | 305° |